createdAt,value
2023-03-28T00:01:07.286Z,72.22
2023-03-28T00:03:36.397Z,71.86
2023-03-28T00:06:05.607Z,72.02
2023-03-28T00:08:32.585Z,72.51
2023-03-28T00:11:08.000Z,72.25
2023-03-28T00:13:35.076Z,72.34
2023-03-28T00:16:03.817Z,71.90
2023-03-28T00:18:30.644Z,71.60
2023-03-28T00:20:57.318Z,72.28
2023-03-28T00:23:24.722Z,72.51
2023-03-28T00:25:51.207Z,72.86
2023-03-28T00:28:17.625Z,72.48
2023-03-28T00:30:44.051Z,72.13
2023-03-28T00:33:11.305Z,72.07
2023-03-28T00:35:37.777Z,72.25
2023-03-28T00:38:04.326Z,71.38
2023-03-28T00:40:37.183Z,72.08
2023-03-28T00:43:03.614Z,72.62
2023-03-28T00:45:30.374Z,72.51
2023-03-28T00:48:04.616Z,72.82
2023-03-28T00:50:37.300Z,72.78
2023-03-28T00:53:16.143Z,72.20
2023-03-28T00:55:58.850Z,71.10
2023-03-28T00:58:29.983Z,71.59
2023-03-28T01:00:57.827Z,71.71
2023-03-28T01:03:29.123Z,72.74
2023-03-28T01:05:57.004Z,72.43
2023-03-28T01:08:34.972Z,72.74
2023-03-28T01:11:02.374Z,72.35
2023-03-28T01:13:36.759Z,72.66
2023-03-28T01:16:05.377Z,72.16
2023-03-28T01:18:34.635Z,72.58
2023-03-28T01:21:56.615Z,71.80
2023-03-28T01:24:56.973Z,72.76
2023-03-28T01:27:38.151Z,72.05
2023-03-28T01:30:28.383Z,71.95
2023-03-28T01:33:15.946Z,74.50
2023-03-28T01:36:02.897Z,74.20
2023-03-28T01:38:54.098Z,73.83
2023-03-28T01:41:34.566Z,73.81
2023-03-28T01:44:12.517Z,73.30
2023-03-28T01:46:47.200Z,72.97
2023-03-28T01:49:31.862Z,72.68
2023-03-28T01:52:05.346Z,72.78
2023-03-28T01:54:54.470Z,72.60
2023-03-28T01:57:29.553Z,74.13
2023-03-28T02:00:12.696Z,75.59
2023-03-28T02:03:21.229Z,75.83
2023-03-28T02:05:58.242Z,76.29
2023-03-28T02:08:32.344Z,75.20
2023-03-28T02:11:21.000Z,74.53
2023-03-28T02:13:59.824Z,76.26
2023-03-28T02:16:50.131Z,75.39
2023-03-28T02:19:38.592Z,73.93
2023-03-28T02:22:14.722Z,73.61
2023-03-28T02:24:51.635Z,72.52
2023-03-28T02:27:32.889Z,73.55
2023-03-28T02:30:12.461Z,73.02
2023-03-28T02:32:50.636Z,72.88
2023-03-28T02:35:27.486Z,72.52
2023-03-28T02:38:32.259Z,72.65
2023-03-28T02:41:16.766Z,72.78
2023-03-28T02:44:10.049Z,72.55
2023-03-28T02:46:46.858Z,71.63
2023-03-28T02:49:47.275Z,71.33
2023-03-28T02:52:35.148Z,72.38
2023-03-28T02:55:06.076Z,72.54
2023-03-28T02:57:46.263Z,72.50
2023-03-28T03:00:18.528Z,73.05
2023-03-28T03:02:51.627Z,74.09
2023-03-28T03:05:20.679Z,73.37
2023-03-28T03:07:50.471Z,72.83
2023-03-28T03:10:17.454Z,71.92
2023-03-28T03:12:47.654Z,72.94
2023-03-28T03:15:16.986Z,73.45
2023-03-28T03:17:54.853Z,73.32
2023-03-28T03:20:33.218Z,73.91
2023-03-28T03:23:01.045Z,71.22
2023-03-28T03:25:28.563Z,71.99
2023-03-28T03:28:05.330Z,72.63
2023-03-28T03:30:32.069Z,72.27
2023-03-28T03:33:16.832Z,71.85
2023-03-28T03:35:47.275Z,71.93
2023-03-28T03:38:14.830Z,71.92
2023-03-28T03:40:41.327Z,72.93
2023-03-28T03:43:08.844Z,73.00
2023-03-28T03:45:37.854Z,73.34
2023-03-28T03:48:04.730Z,73.43
2023-03-28T03:50:31.279Z,74.19
2023-03-28T03:52:58.609Z,74.77
2023-03-28T03:55:32.621Z,74.72
2023-03-28T03:58:00.056Z,73.66
2023-03-28T04:00:28.548Z,72.56
2023-03-28T04:02:54.981Z,73.45
2023-03-28T04:05:25.050Z,73.77
2023-03-28T04:08:03.240Z,74.03
2023-03-28T04:10:38.630Z,73.45
2023-03-28T04:13:05.033Z,73.38
2023-03-28T04:15:34.041Z,72.67
2023-03-28T04:18:29.714Z,73.56
2023-03-28T04:20:59.887Z,73.02
2023-03-28T04:23:43.806Z,72.84
2023-03-28T04:26:45.931Z,72.42
2023-03-28T04:29:12.954Z,72.77
2023-03-28T04:31:51.413Z,73.58
2023-03-28T04:34:38.910Z,73.17
2023-03-28T04:37:13.263Z,73.35
2023-03-28T04:39:47.875Z,73.33
2023-03-28T04:42:36.416Z,72.69
2023-03-28T04:45:12.547Z,71.92
2023-03-28T04:47:40.971Z,72.07
2023-03-28T04:50:14.754Z,72.44
2023-03-28T04:52:41.328Z,73.29
2023-03-28T04:55:08.153Z,73.16
2023-03-28T04:57:37.087Z,74.07
2023-03-28T05:00:10.142Z,73.90
2023-03-28T05:03:14.542Z,73.73
2023-03-28T05:05:57.036Z,73.95
2023-03-28T05:08:26.018Z,72.76
2023-03-28T05:10:52.472Z,73.52
2023-03-28T05:13:21.728Z,73.55
2023-03-28T05:16:00.353Z,74.22
2023-03-28T05:18:44.376Z,74.69
2023-03-28T05:21:11.674Z,73.73
2023-03-28T05:23:38.207Z,74.43
2023-03-28T05:26:13.735Z,73.30
2023-03-28T05:28:41.680Z,73.29
2023-03-28T05:31:08.492Z,73.35
2023-03-28T05:33:35.605Z,73.94
2023-03-28T05:36:02.482Z,73.26
2023-03-28T05:38:33.217Z,73.44
2023-03-28T05:41:05.201Z,72.71
2023-03-28T05:43:33.619Z,71.59
2023-03-28T05:46:00.406Z,70.98
2023-03-28T05:48:33.452Z,67.86
2023-03-28T05:51:00.303Z,67.90
2023-03-28T05:53:26.965Z,67.18
2023-03-28T05:55:53.454Z,65.60
2023-03-28T05:58:20.114Z,64.46
2023-03-28T06:00:46.544Z,62.45
2023-03-28T06:03:16.874Z,61.57
2023-03-28T06:05:45.632Z,60.03
2023-03-28T06:08:20.880Z,58.69
2023-03-28T06:10:48.433Z,57.82
2023-03-28T06:13:19.586Z,56.62
2023-03-28T06:15:47.635Z,55.48
2023-03-28T06:18:15.614Z,54.47
2023-03-28T06:20:48.301Z,54.42
2023-03-28T06:23:14.727Z,53.95
2023-03-28T06:25:41.745Z,53.36
2023-03-28T06:28:08.303Z,52.54
2023-03-28T06:30:52.896Z,52.39
2023-03-28T06:33:19.346Z,52.88
2023-03-28T06:35:46.196Z,52.43
2023-03-28T06:38:12.682Z,51.64
2023-03-28T06:40:48.085Z,50.97
2023-03-28T06:43:15.308Z,51.58
2023-03-28T06:46:03.657Z,50.38
2023-03-28T06:48:34.906Z,51.59
2023-03-28T06:51:41.284Z,51.40
2023-03-28T06:54:07.927Z,50.88
2023-03-28T06:56:34.391Z,50.31
2023-03-28T06:59:01.001Z,51.13
2023-03-28T07:01:31.039Z,50.48
2023-03-28T07:04:03.943Z,50.51
2023-03-28T07:06:30.964Z,50.50
2023-03-28T07:08:58.325Z,50.14
2023-03-28T07:11:35.645Z,49.77
2023-03-28T07:14:02.111Z,50.59
2023-03-28T07:16:28.673Z,51.18
2023-03-28T07:18:55.140Z,49.67
2023-03-28T07:21:29.705Z,51.34
2023-03-28T07:23:58.443Z,52.45
2023-03-28T07:26:28.775Z,52.87
2023-03-28T07:28:55.850Z,52.58
2023-03-28T07:31:22.730Z,51.80
2023-03-28T07:33:50.217Z,52.06
2023-03-28T07:36:21.633Z,51.11
2023-03-28T07:38:52.590Z,50.16
2023-03-28T07:41:22.382Z,50.05
2023-03-28T07:43:48.924Z,48.63
2023-03-28T07:46:16.533Z,48.73
2023-03-28T07:48:43.628Z,49.35
2023-03-28T07:51:11.014Z,50.19
2023-03-28T07:53:39.072Z,50.81
2023-03-28T07:56:11.588Z,49.53
2023-03-28T07:58:55.024Z,48.41
2023-03-28T08:01:22.797Z,47.96
2023-03-28T08:03:53.532Z,46.94
2023-03-28T08:06:31.582Z,45.80
2023-03-28T08:09:00.997Z,44.57
2023-03-28T08:11:43.243Z,41.00
2023-03-28T08:14:15.381Z,41.49
2023-03-28T08:16:43.365Z,41.66
2023-03-28T08:19:11.889Z,41.88
2023-03-28T08:21:58.787Z,43.55
2023-03-28T08:24:35.139Z,42.98
2023-03-28T08:27:10.516Z,41.56
2023-03-28T08:29:37.242Z,42.76
2023-03-28T08:32:06.325Z,44.33
2023-03-28T08:34:34.000Z,43.85
2023-03-28T08:37:05.553Z,42.99
2023-03-28T08:39:33.553Z,41.34
2023-03-28T08:42:21.452Z,40.40
2023-03-28T08:45:20.302Z,40.44
2023-03-28T08:47:59.361Z,39.63
2023-03-28T08:50:33.867Z,40.36
2023-03-28T08:53:02.449Z,39.13
2023-03-28T08:55:40.322Z,38.61
2023-03-28T08:58:12.737Z,36.57
2023-03-28T09:00:39.831Z,36.81
2023-03-28T09:03:13.419Z,36.09
2023-03-28T09:06:05.676Z,34.35
2023-03-28T09:09:04.686Z,35.93
2023-03-28T09:12:02.855Z,34.81
2023-03-28T09:15:04.982Z,34.32
2023-03-28T09:17:45.825Z,33.22
2023-03-28T09:20:30.944Z,33.18
2023-03-28T09:23:16.075Z,31.42
2023-03-28T09:26:14.526Z,32.41
2023-03-28T09:28:52.141Z,31.90
2023-03-28T09:31:23.440Z,32.85
2023-03-28T09:33:55.642Z,30.90
2023-03-28T09:36:45.410Z,31.95
2023-03-28T09:39:35.595Z,31.93
2023-03-28T09:42:11.260Z,31.72
2023-03-28T09:45:35.018Z,31.03
2023-03-28T09:48:25.092Z,32.40
2023-03-28T09:50:53.739Z,31.72
2023-03-28T09:53:37.651Z,30.55
2023-03-28T09:56:11.927Z,30.66
2023-03-28T09:58:56.012Z,30.87
2023-03-28T10:01:43.341Z,30.38
2023-03-28T10:04:37.444Z,30.74
2023-03-28T10:07:28.780Z,29.09
2023-03-28T10:10:17.531Z,28.96
2023-03-28T10:12:47.780Z,30.17
2023-03-28T10:15:42.961Z,29.37
2023-03-28T10:18:21.022Z,30.32
2023-03-28T10:21:11.568Z,29.83
2023-03-28T10:23:42.856Z,30.45
2023-03-28T10:26:12.724Z,29.94
2023-03-28T10:28:43.246Z,29.69
2023-03-28T10:31:21.880Z,30.72
2023-03-28T10:33:52.639Z,31.01
2023-03-28T10:36:42.805Z,30.67
2023-03-28T10:39:22.228Z,30.46
2023-03-28T10:42:07.170Z,30.57
2023-03-28T10:44:58.914Z,30.99
2023-03-28T10:47:25.926Z,31.81
2023-03-28T10:49:56.320Z,30.38
2023-03-28T10:52:50.710Z,29.78
2023-03-28T10:55:28.624Z,30.72
2023-03-28T10:58:18.098Z,30.36
2023-03-28T11:01:00.502Z,31.82
2023-03-28T11:04:05.028Z,32.52
2023-03-28T11:06:43.371Z,33.33
2023-03-28T11:09:41.903Z,33.95
2023-03-28T11:12:56.614Z,33.80
2023-03-28T11:15:40.296Z,32.23
2023-03-28T11:18:37.653Z,32.74
2023-03-28T11:21:26.170Z,31.40
2023-03-28T11:24:03.260Z,29.53
2023-03-28T11:27:12.488Z,31.35
2023-03-28T11:30:17.539Z,31.30
2023-03-28T11:33:10.775Z,29.94
2023-03-28T11:35:46.928Z,31.66
2023-03-28T11:38:16.156Z,33.80
2023-03-28T11:41:08.790Z,32.49
2023-03-28T11:44:02.949Z,32.29
2023-03-28T11:46:42.585Z,30.74
2023-03-28T11:49:20.433Z,31.74
2023-03-28T11:51:55.734Z,32.63
2023-03-28T11:54:34.947Z,31.58
2023-03-28T11:57:21.860Z,32.42
2023-03-28T12:00:06.605Z,30.82
2023-03-28T12:02:44.514Z,33.61
2023-03-28T12:05:22.781Z,35.76
2023-03-28T12:07:57.277Z,34.36
2023-03-28T12:10:35.819Z,33.88
2023-03-28T12:13:14.326Z,31.88
2023-03-28T12:15:58.423Z,32.36
2023-03-28T12:18:31.027Z,33.03
2023-03-28T12:21:15.820Z,34.85
2023-03-28T12:24:06.430Z,34.73
2023-03-28T12:27:03.343Z,34.40
2023-03-28T12:29:41.515Z,34.50
2023-03-28T12:32:23.017Z,33.20
2023-03-28T12:34:58.288Z,33.18
2023-03-28T12:37:54.550Z,34.26
2023-03-28T12:40:29.472Z,33.01
2023-03-28T12:42:58.299Z,32.90
2023-03-28T12:45:30.409Z,35.19
2023-03-28T12:48:06.530Z,34.64
2023-03-28T12:50:52.982Z,34.65
2023-03-28T12:53:21.854Z,34.50
2023-03-28T12:55:51.427Z,34.89
2023-03-28T12:58:29.853Z,34.98
2023-03-28T13:01:20.241Z,34.95
2023-03-28T13:04:28.897Z,35.14
2023-03-28T13:07:23.862Z,33.92
2023-03-28T13:10:18.973Z,34.51
2023-03-28T13:13:06.344Z,33.55
2023-03-28T13:15:33.635Z,33.08
2023-03-28T13:18:22.575Z,32.44
2023-03-28T13:20:51.896Z,32.95
2023-03-28T13:23:24.953Z,32.02
2023-03-28T13:26:09.367Z,32.91
2023-03-28T13:28:47.802Z,32.33
2023-03-28T13:31:21.930Z,34.03
2023-03-28T13:33:54.055Z,34.41
2023-03-28T13:36:23.882Z,34.37
2023-03-28T13:38:58.303Z,34.92
2023-03-28T13:41:35.921Z,34.31
2023-03-28T13:44:09.203Z,34.04
2023-03-28T13:46:48.458Z,34.30
2023-03-28T13:49:34.010Z,33.37
2023-03-28T13:52:08.417Z,34.84
2023-03-28T13:54:35.016Z,33.88
2023-03-28T13:57:15.001Z,34.47
2023-03-28T13:59:51.706Z,34.82
2023-03-28T14:02:31.859Z,34.93
2023-03-28T14:05:11.843Z,35.43
2023-03-28T14:07:38.538Z,35.45
2023-03-28T14:10:29.968Z,35.54
2023-03-28T14:13:01.451Z,34.63
2023-03-28T14:15:31.188Z,36.22
2023-03-28T14:17:59.143Z,35.63
2023-03-28T14:20:26.501Z,36.25
2023-03-28T14:23:00.508Z,36.84
2023-03-28T14:25:28.802Z,35.85
2023-03-28T14:27:56.973Z,35.16
2023-03-28T14:30:42.326Z,36.68
2023-03-28T14:33:14.341Z,36.10
2023-03-28T14:35:42.389Z,35.06
2023-03-28T14:38:14.048Z,34.44
2023-03-28T14:40:42.477Z,35.26
2023-03-28T14:43:16.945Z,33.99
2023-03-28T14:45:50.330Z,34.60
2023-03-28T14:48:21.322Z,33.64
2023-03-28T14:50:50.810Z,33.78
2023-03-28T14:53:30.236Z,34.73
2023-03-28T14:56:05.239Z,34.15
2023-03-28T14:58:36.814Z,34.48
2023-03-28T15:01:05.909Z,34.86
2023-03-28T15:03:35.832Z,34.84
2023-03-28T15:06:03.468Z,35.45
2023-03-28T15:11:07.855Z,35.54
2023-03-28T15:13:38.924Z,35.52
2023-03-28T15:16:08.110Z,35.42
2023-03-28T15:18:44.380Z,34.94
2023-03-28T15:21:11.682Z,35.46
2023-03-28T15:23:53.525Z,35.54
2023-03-28T15:26:28.838Z,35.16
2023-03-28T15:28:57.155Z,34.64
2023-03-28T15:31:24.844Z,34.29
2023-03-28T15:33:53.676Z,33.89
2023-03-28T15:36:25.405Z,33.92
2023-03-28T15:39:00.658Z,34.30
2023-03-28T15:41:42.978Z,34.09
2023-03-28T15:44:13.168Z,34.28
2023-03-28T15:46:39.743Z,34.07
2023-03-28T15:49:07.285Z,33.98
2023-03-28T15:51:47.928Z,34.45
2023-03-28T15:54:28.212Z,34.16
2023-03-28T15:57:01.902Z,34.57
2023-03-28T15:59:34.767Z,34.54
2023-03-28T16:02:22.809Z,34.24
2023-03-28T16:05:06.638Z,34.37
2023-03-28T16:07:47.555Z,34.71
2023-03-28T16:10:18.524Z,34.45
2023-03-28T16:13:14.198Z,34.75
2023-03-28T16:15:51.911Z,34.00
2023-03-28T16:18:38.731Z,33.47
2023-03-28T16:21:05.548Z,32.90
2023-03-28T16:23:32.090Z,33.38
2023-03-28T16:25:58.731Z,34.26
2023-03-28T16:28:25.540Z,34.75
2023-03-28T16:30:53.104Z,35.04
2023-03-28T16:33:19.761Z,35.12
2023-03-28T16:35:46.217Z,35.33
2023-03-28T16:38:12.794Z,36.02
2023-03-28T16:40:39.512Z,38.13
2023-03-28T16:43:07.817Z,39.18
2023-03-28T16:45:35.124Z,39.67
2023-03-28T16:48:02.337Z,39.71
2023-03-28T16:50:28.839Z,40.70
2023-03-28T16:52:55.370Z,40.79
2023-03-28T16:55:21.819Z,41.38
2023-03-28T16:57:49.244Z,41.03
2023-03-28T17:00:18.448Z,41.68
2023-03-28T17:02:46.905Z,41.09
2023-03-28T17:05:14.458Z,41.40
2023-03-28T17:07:41.374Z,41.61
2023-03-28T17:10:08.609Z,41.37
2023-03-28T17:12:35.729Z,41.99
2023-03-28T17:15:02.241Z,42.31
2023-03-28T17:17:28.705Z,42.41
2023-03-28T17:19:55.683Z,42.45
2023-03-28T17:22:23.341Z,42.13
2023-03-28T17:24:49.784Z,42.84
2023-03-28T17:27:16.343Z,42.48
2023-03-28T17:29:42.865Z,42.50
2023-03-28T17:32:09.391Z,43.24
2023-03-28T17:34:36.542Z,43.67
2023-03-28T17:37:04.010Z,42.80
2023-03-28T17:39:31.124Z,42.86
2023-03-28T17:41:57.708Z,43.08
2023-03-28T17:44:24.174Z,42.66
2023-03-28T17:46:50.703Z,43.21
2023-03-28T17:49:18.296Z,42.96
2023-03-28T17:51:45.064Z,43.40
2023-03-28T17:54:12.070Z,43.24
2023-03-28T17:56:39.742Z,43.48
2023-03-28T17:59:06.737Z,43.45
2023-03-28T18:01:33.538Z,43.38
2023-03-28T18:04:00.147Z,43.17
2023-03-28T18:06:45.689Z,43.30
2023-03-28T18:09:12.507Z,43.98
2023-03-28T18:11:39.576Z,43.08
2023-03-28T18:14:08.414Z,43.29
2023-03-28T18:16:36.099Z,44.15
2023-03-28T18:19:02.806Z,43.73
2023-03-28T18:21:30.059Z,44.16
2023-03-28T18:23:56.738Z,44.52
2023-03-28T18:26:23.887Z,44.66
2023-03-28T18:28:50.362Z,44.44
2023-03-28T18:31:19.450Z,45.10
2023-03-28T18:33:46.020Z,44.93
2023-03-28T18:36:13.647Z,44.90
2023-03-28T18:38:42.616Z,45.47
2023-03-28T18:41:10.354Z,45.24
2023-03-28T18:43:38.192Z,46.36
2023-03-28T18:46:07.640Z,47.62
2023-03-28T18:48:35.614Z,47.67
2023-03-28T18:51:03.269Z,48.77
2023-03-28T18:53:30.244Z,48.72
2023-03-28T18:55:56.737Z,48.89
2023-03-28T18:58:26.288Z,48.48
2023-03-28T19:00:59.722Z,48.25
2023-03-28T19:03:27.972Z,48.74
2023-03-28T19:05:56.848Z,48.74
2023-03-28T19:08:26.166Z,49.38
2023-03-28T19:10:54.265Z,48.24
2023-03-28T19:13:21.277Z,47.75
2023-03-28T19:15:56.935Z,48.66
2023-03-28T19:18:23.402Z,48.85
2023-03-28T19:20:51.003Z,49.12
2023-03-28T19:23:17.724Z,48.75
2023-03-28T19:25:44.693Z,49.97
2023-03-28T19:28:12.148Z,49.18
2023-03-28T19:30:39.083Z,50.24
2023-03-28T19:33:06.973Z,50.65
2023-03-28T19:35:33.834Z,50.70
2023-03-28T19:38:02.361Z,51.72
2023-03-28T19:40:29.947Z,52.84
2023-03-28T19:42:59.624Z,54.47
2023-03-28T19:45:26.998Z,54.46
2023-03-28T19:47:55.488Z,54.58
2023-03-28T19:50:22.675Z,53.61
2023-03-28T19:52:49.191Z,54.35
2023-03-28T19:55:15.613Z,56.49
2023-03-28T19:57:42.077Z,57.70
2023-03-28T20:00:09.446Z,58.07
2023-03-28T20:02:41.767Z,58.63
2023-03-28T20:05:08.934Z,58.04
2023-03-28T20:07:35.468Z,58.10
2023-03-28T20:10:03.149Z,57.44
2023-03-28T20:12:29.718Z,57.39
2023-03-28T20:14:57.065Z,56.74
2023-03-28T20:17:23.833Z,58.06
2023-03-28T20:19:51.562Z,57.06
2023-03-28T20:22:20.126Z,57.09
2023-03-28T20:24:48.694Z,56.00
2023-03-28T20:27:16.298Z,56.08
2023-03-28T20:29:42.819Z,55.59
2023-03-28T20:32:10.413Z,56.56
2023-03-28T20:34:37.060Z,56.52
2023-03-28T20:37:03.686Z,56.85
2023-03-28T20:39:36.359Z,57.15
2023-03-28T20:42:05.567Z,56.84
2023-03-28T20:44:37.927Z,57.72
2023-03-28T20:47:07.999Z,58.02
2023-03-28T20:49:35.973Z,57.26
2023-03-28T20:52:02.734Z,57.05
2023-03-28T20:54:29.442Z,57.47
2023-03-28T20:56:56.191Z,59.10
2023-03-28T20:59:23.773Z,58.46
2023-03-28T21:01:51.429Z,59.96
2023-03-28T21:04:17.875Z,61.40
2023-03-28T21:06:45.909Z,62.02
2023-03-28T21:09:17.784Z,61.30
2023-03-28T21:11:45.079Z,61.29
2023-03-28T21:14:13.642Z,59.51
2023-03-28T21:16:41.021Z,59.26
2023-03-28T21:19:08.077Z,59.98
2023-03-28T21:21:34.618Z,59.59
2023-03-28T21:24:02.111Z,59.50
2023-03-28T21:26:29.171Z,59.05
2023-03-28T21:28:55.809Z,59.79
2023-03-28T21:31:27.921Z,59.69
2023-03-28T21:33:59.765Z,59.79
2023-03-28T21:36:27.210Z,60.33
2023-03-28T21:38:53.812Z,61.53
2023-03-28T21:41:22.211Z,59.82
2023-03-28T21:43:48.719Z,58.09
2023-03-28T21:46:18.238Z,58.68
2023-03-28T21:48:47.549Z,58.20
2023-03-28T21:51:15.432Z,58.31
2023-03-28T21:53:42.359Z,58.58
2023-03-28T21:56:11.419Z,58.04
2023-03-28T21:58:37.959Z,58.53
2023-03-28T22:01:05.120Z,58.14
2023-03-28T22:03:32.094Z,58.38
2023-03-28T22:05:58.737Z,59.72
2023-03-28T22:08:25.458Z,61.38
2023-03-28T22:10:55.103Z,62.48
2023-03-28T22:13:23.675Z,63.20
2023-03-28T22:15:52.348Z,64.45
2023-03-28T22:18:19.571Z,65.10
2023-03-28T22:20:49.624Z,65.25
2023-03-28T22:23:16.085Z,66.13
2023-03-28T22:25:42.599Z,65.07
2023-03-28T22:28:10.183Z,65.00
2023-03-28T22:30:38.808Z,65.56
2023-03-28T22:33:06.735Z,64.60
2023-03-28T22:35:33.630Z,64.86
2023-03-28T22:38:01.018Z,65.14
2023-03-28T22:40:28.518Z,65.95
2023-03-28T22:42:55.835Z,66.11
2023-03-28T22:45:22.749Z,66.44
2023-03-28T22:47:50.322Z,66.67
2023-03-28T22:50:18.344Z,66.33
2023-03-28T22:52:46.120Z,67.08
2023-03-28T22:55:13.326Z,67.11
2023-03-28T22:57:44.017Z,67.03
2023-03-28T23:00:13.216Z,67.87
2023-03-28T23:02:40.301Z,67.63
2023-03-28T23:05:07.959Z,68.26
2023-03-28T23:07:36.821Z,69.44
2023-03-28T23:10:05.693Z,69.08
2023-03-28T23:12:32.167Z,68.98
2023-03-28T23:14:58.574Z,69.39
2023-03-28T23:17:26.309Z,69.60
2023-03-28T23:19:52.914Z,70.31
2023-03-28T23:22:19.565Z,70.74
2023-03-28T23:24:46.860Z,70.53
2023-03-28T23:27:13.353Z,70.28
2023-03-28T23:29:39.777Z,69.86
2023-03-28T23:32:06.266Z,69.66
2023-03-28T23:34:33.425Z,69.74
2023-03-28T23:37:02.125Z,69.24
2023-03-28T23:39:29.116Z,69.76
2023-03-28T23:41:56.683Z,69.54
2023-03-28T23:44:23.232Z,69.92
2023-03-28T23:46:49.839Z,69.04
2023-03-28T23:49:17.242Z,69.64
2023-03-28T23:51:43.708Z,69.00
2023-03-28T23:54:12.353Z,69.54
2023-03-28T23:56:39.128Z,69.46
2023-03-28T23:59:05.580Z,70.20
